sensor_id;sensor_type;location;lat;lon;timestamp;P1;durP1;ratioP1;P2;durP2;ratioP2
36061;SDS011;22123;52.412;20.970;2023-03-23T00:01:57;6.53;;;4.22;;
36061;SDS011;22123;52.412;20.970;2023-03-23T00:04:23;10.45;;;4.90;;
36061;SDS011;22123;52.412;20.970;2023-03-23T00:06:49;9.32;;;4.13;;
36061;SDS011;22123;52.412;20.970;2023-03-23T00:09:14;8.50;;;4.95;;
36061;SDS011;22123;52.412;20.970;2023-03-23T00:11:41;11.73;;;5.35;;
36061;SDS011;22123;52.412;20.970;2023-03-23T00:14:08;7.78;;;5.38;;
36061;SDS011;22123;52.412;20.970;2023-03-23T00:16:35;9.07;;;5.05;;
36061;SDS011;22123;52.412;20.970;2023-03-23T00:19:03;7.55;;;3.45;;
36061;SDS011;22123;52.412;20.970;2023-03-23T00:21:32;17.00;;;4.20;;
36061;SDS011;22123;52.412;20.970;2023-03-23T00:24:00;10.73;;;3.25;;
36061;SDS011;22123;52.412;20.970;2023-03-23T00:26:28;3.97;;;3.38;;
36061;SDS011;22123;52.412;20.970;2023-03-23T00:28:55;6.35;;;4.65;;
36061;SDS011;22123;52.412;20.970;2023-03-23T00:31:21;7.28;;;4.80;;
36061;SDS011;22123;52.412;20.970;2023-03-23T00:33:47;9.52;;;4.32;;
36061;SDS011;22123;52.412;20.970;2023-03-23T00:36:13;9.02;;;4.40;;
36061;SDS011;22123;52.412;20.970;2023-03-23T00:38:39;10.13;;;5.07;;
36061;SDS011;22123;52.412;20.970;2023-03-23T00:41:06;8.60;;;4.53;;
36061;SDS011;22123;52.412;20.970;2023-03-23T00:43:32;5.93;;;4.25;;
36061;SDS011;22123;52.412;20.970;2023-03-23T00:45:58;8.23;;;4.47;;
36061;SDS011;22123;52.412;20.970;2023-03-23T00:48:24;10.50;;;5.40;;
36061;SDS011;22123;52.412;20.970;2023-03-23T00:50:50;5.15;;;3.38;;
36061;SDS011;22123;52.412;20.970;2023-03-23T00:53:17;10.57;;;4.90;;
36061;SDS011;22123;52.412;20.970;2023-03-23T00:55:46;13.98;;;5.55;;
36061;SDS011;22123;52.412;20.970;2023-03-23T00:58:14;17.25;;;5.63;;
36061;SDS011;22123;52.412;20.970;2023-03-23T01:00:41;6.65;;;4.18;;
36061;SDS011;22123;52.412;20.970;2023-03-23T01:03:08;6.72;;;3.72;;
36061;SDS011;22123;52.412;20.970;2023-03-23T01:05:36;4.72;;;2.95;;
36061;SDS011;22123;52.412;20.970;2023-03-23T01:08:03;12.55;;;6.00;;
36061;SDS011;22123;52.412;20.970;2023-03-23T01:10:32;5.45;;;3.35;;
36061;SDS011;22123;52.412;20.970;2023-03-23T01:12:58;6.55;;;4.47;;
36061;SDS011;22123;52.412;20.970;2023-03-23T01:15:25;7.32;;;3.85;;
36061;SDS011;22123;52.412;20.970;2023-03-23T01:17:52;7.40;;;4.32;;
36061;SDS011;22123;52.412;20.970;2023-03-23T01:20:18;9.95;;;5.00;;
36061;SDS011;22123;52.412;20.970;2023-03-23T01:22:43;6.78;;;4.05;;
36061;SDS011;22123;52.412;20.970;2023-03-23T01:25:10;10.75;;;4.65;;
36061;SDS011;22123;52.412;20.970;2023-03-23T01:27:38;13.40;;;5.25;;
36061;SDS011;22123;52.412;20.970;2023-03-23T01:30:04;10.57;;;5.22;;
36061;SDS011;22123;52.412;20.970;2023-03-23T01:32:31;9.80;;;5.20;;
36061;SDS011;22123;52.412;20.970;2023-03-23T01:34:57;7.30;;;3.45;;
36061;SDS011;22123;52.412;20.970;2023-03-23T01:37:23;9.43;;;5.18;;
36061;SDS011;22123;52.412;20.970;2023-03-23T01:39:49;8.30;;;3.88;;
36061;SDS011;22123;52.412;20.970;2023-03-23T01:42:15;7.05;;;3.75;;
36061;SDS011;22123;52.412;20.970;2023-03-23T01:47:10;8.20;;;5.07;;
36061;SDS011;22123;52.412;20.970;2023-03-23T01:49:38;7.40;;;3.53;;
36061;SDS011;22123;52.412;20.970;2023-03-23T01:52:42;8.93;;;5.80;;
36061;SDS011;22123;52.412;20.970;2023-03-23T01:55:00;8.40;;;3.58;;
36061;SDS011;22123;52.412;20.970;2023-03-23T01:57:27;6.75;;;4.15;;
36061;SDS011;22123;52.412;20.970;2023-03-23T01:59:54;6.38;;;3.45;;
36061;SDS011;22123;52.412;20.970;2023-03-23T02:02:22;11.10;;;5.75;;
36061;SDS011;22123;52.412;20.970;2023-03-23T02:04:49;12.05;;;4.22;;
36061;SDS011;22123;52.412;20.970;2023-03-23T02:07:16;6.85;;;4.00;;
36061;SDS011;22123;52.412;20.970;2023-03-23T02:09:45;10.57;;;3.70;;
36061;SDS011;22123;52.412;20.970;2023-03-23T02:12:11;7.57;;;3.75;;
36061;SDS011;22123;52.412;20.970;2023-03-23T02:14:37;8.15;;;2.70;;
36061;SDS011;22123;52.412;20.970;2023-03-23T02:22:51;9.65;;;4.35;;
36061;SDS011;22123;52.412;20.970;2023-03-23T02:33:29;6.82;;;3.65;;
36061;SDS011;22123;52.412;20.970;2023-03-23T02:38:55;7.13;;;3.47;;
36061;SDS011;22123;52.412;20.970;2023-03-23T02:41:34;5.60;;;5.05;;
36061;SDS011;22123;52.412;20.970;2023-03-23T02:44:05;5.63;;;3.80;;
36061;SDS011;22123;52.412;20.970;2023-03-23T02:46:33;6.88;;;3.53;;
36061;SDS011;22123;52.412;20.970;2023-03-23T02:49:01;7.93;;;4.72;;
36061;SDS011;22123;52.412;20.970;2023-03-23T02:51:29;5.45;;;2.95;;
36061;SDS011;22123;52.412;20.970;2023-03-23T02:53:55;5.00;;;3.55;;
36061;SDS011;22123;52.412;20.970;2023-03-23T02:56:23;9.93;;;3.42;;
36061;SDS011;22123;52.412;20.970;2023-03-23T02:58:52;9.27;;;3.85;;
36061;SDS011;22123;52.412;20.970;2023-03-23T03:03:52;10.63;;;4.22;;
36061;SDS011;22123;52.412;20.970;2023-03-23T03:11:28;4.18;;;2.92;;
36061;SDS011;22123;52.412;20.970;2023-03-23T03:16:43;7.88;;;4.22;;
36061;SDS011;22123;52.412;20.970;2023-03-23T03:21:50;10.48;;;3.50;;
36061;SDS011;22123;52.412;20.970;2023-03-23T03:24:19;9.35;;;5.25;;
36061;SDS011;22123;52.412;20.970;2023-03-23T03:26:47;8.10;;;3.92;;
36061;SDS011;22123;52.412;20.970;2023-03-23T03:29:18;13.00;;;4.75;;
36061;SDS011;22123;52.412;20.970;2023-03-23T03:31:47;5.10;;;3.17;;
36061;SDS011;22123;52.412;20.970;2023-03-23T03:34:17;8.45;;;4.20;;
36061;SDS011;22123;52.412;20.970;2023-03-23T03:36:44;6.45;;;3.92;;
36061;SDS011;22123;52.412;20.970;2023-03-23T03:39:11;8.57;;;3.05;;
36061;SDS011;22123;52.412;20.970;2023-03-23T03:41:39;6.20;;;4.60;;
36061;SDS011;22123;52.412;20.970;2023-03-23T03:44:05;6.20;;;3.63;;
36061;SDS011;22123;52.412;20.970;2023-03-23T03:46:32;6.68;;;3.67;;
36061;SDS011;22123;52.412;20.970;2023-03-23T03:48:59;6.45;;;2.92;;
36061;SDS011;22123;52.412;20.970;2023-03-23T03:51:27;4.97;;;3.45;;
36061;SDS011;22123;52.412;20.970;2023-03-23T03:53:54;7.32;;;3.78;;
36061;SDS011;22123;52.412;20.970;2023-03-23T03:56:20;9.05;;;4.25;;
36061;SDS011;22123;52.412;20.970;2023-03-23T03:58:45;6.35;;;4.03;;
36061;SDS011;22123;52.412;20.970;2023-03-23T04:01:11;7.40;;;3.50;;
36061;SDS011;22123;52.412;20.970;2023-03-23T04:03:37;6.68;;;4.53;;
36061;SDS011;22123;52.412;20.970;2023-03-23T04:06:04;12.05;;;3.47;;
36061;SDS011;22123;52.412;20.970;2023-03-23T04:08:30;11.60;;;4.47;;
36061;SDS011;22123;52.412;20.970;2023-03-23T04:10:56;5.60;;;2.80;;
36061;SDS011;22123;52.412;20.970;2023-03-23T04:13:22;4.93;;;2.38;;
36061;SDS011;22123;52.412;20.970;2023-03-23T04:15:48;8.90;;;4.38;;
36061;SDS011;22123;52.412;20.970;2023-03-23T04:18:15;3.78;;;2.95;;
36061;SDS011;22123;52.412;20.970;2023-03-23T04:20:42;5.90;;;3.83;;
36061;SDS011;22123;52.412;20.970;2023-03-23T04:23:09;5.43;;;3.58;;
36061;SDS011;22123;52.412;20.970;2023-03-23T04:25:35;7.78;;;3.50;;
36061;SDS011;22123;52.412;20.970;2023-03-23T04:28:01;3.78;;;2.47;;
36061;SDS011;22123;52.412;20.970;2023-03-23T04:30:27;4.15;;;3.30;;
36061;SDS011;22123;52.412;20.970;2023-03-23T04:32:54;7.00;;;3.65;;
36061;SDS011;22123;52.412;20.970;2023-03-23T04:35:21;2.90;;;1.92;;
36061;SDS011;22123;52.412;20.970;2023-03-23T04:37:49;9.57;;;4.55;;
36061;SDS011;22123;52.412;20.970;2023-03-23T04:40:15;6.43;;;3.40;;
36061;SDS011;22123;52.412;20.970;2023-03-23T04:42:42;5.28;;;3.03;;
36061;SDS011;22123;52.412;20.970;2023-03-23T04:45:09;10.38;;;3.35;;
36061;SDS011;22123;52.412;20.970;2023-03-23T04:47:36;9.52;;;4.90;;
36061;SDS011;22123;52.412;20.970;2023-03-23T04:50:02;6.47;;;3.20;;
36061;SDS011;22123;52.412;20.970;2023-03-23T04:52:28;2.95;;;2.38;;
36061;SDS011;22123;52.412;20.970;2023-03-23T04:54:54;4.28;;;3.00;;
36061;SDS011;22123;52.412;20.970;2023-03-23T04:57:20;13.43;;;3.25;;
36061;SDS011;22123;52.412;20.970;2023-03-23T04:59:47;11.02;;;3.28;;
36061;SDS011;22123;52.412;20.970;2023-03-23T05:02:13;4.50;;;3.22;;
36061;SDS011;22123;52.412;20.970;2023-03-23T05:04:40;4.43;;;3.67;;
36061;SDS011;22123;52.412;20.970;2023-03-23T05:07:07;5.25;;;3.35;;
36061;SDS011;22123;52.412;20.970;2023-03-23T05:09:33;3.08;;;2.25;;
36061;SDS011;22123;52.412;20.970;2023-03-23T05:12:03;7.70;;;3.08;;
36061;SDS011;22123;52.412;20.970;2023-03-23T05:14:32;7.18;;;4.60;;
36061;SDS011;22123;52.412;20.970;2023-03-23T05:16:58;4.78;;;3.80;;
36061;SDS011;22123;52.412;20.970;2023-03-23T05:19:24;4.85;;;3.22;;
36061;SDS011;22123;52.412;20.970;2023-03-23T05:21:50;5.20;;;2.38;;
36061;SDS011;22123;52.412;20.970;2023-03-23T05:24:16;6.28;;;3.38;;
36061;SDS011;22123;52.412;20.970;2023-03-23T05:26:42;6.47;;;2.55;;
36061;SDS011;22123;52.412;20.970;2023-03-23T05:29:08;9.07;;;4.30;;
36061;SDS011;22123;52.412;20.970;2023-03-23T05:31:33;5.10;;;2.47;;
36061;SDS011;22123;52.412;20.970;2023-03-23T05:33:59;3.15;;;2.28;;
36061;SDS011;22123;52.412;20.970;2023-03-23T05:36:25;6.47;;;3.53;;
36061;SDS011;22123;52.412;20.970;2023-03-23T05:38:51;13.70;;;3.83;;
36061;SDS011;22123;52.412;20.970;2023-03-23T05:41:17;8.50;;;3.65;;
36061;SDS011;22123;52.412;20.970;2023-03-23T05:43:43;6.82;;;2.55;;
36061;SDS011;22123;52.412;20.970;2023-03-23T05:46:09;5.00;;;2.65;;
36061;SDS011;22123;52.412;20.970;2023-03-23T05:48:35;5.10;;;2.88;;
36061;SDS011;22123;52.412;20.970;2023-03-23T05:51:01;5.88;;;2.30;;
36061;SDS011;22123;52.412;20.970;2023-03-23T05:53:26;5.97;;;3.40;;
36061;SDS011;22123;52.412;20.970;2023-03-23T05:55:52;3.65;;;2.33;;
36061;SDS011;22123;52.412;20.970;2023-03-23T05:58:18;5.80;;;3.10;;
36061;SDS011;22123;52.412;20.970;2023-03-23T06:00:44;5.53;;;2.88;;
36061;SDS011;22123;52.412;20.970;2023-03-23T06:03:10;6.30;;;3.25;;
36061;SDS011;22123;52.412;20.970;2023-03-23T06:05:36;7.80;;;3.08;;
36061;SDS011;22123;52.412;20.970;2023-03-23T06:08:07;4.03;;;2.13;;
36061;SDS011;22123;52.412;20.970;2023-03-23T06:10:33;5.68;;;1.88;;
36061;SDS011;22123;52.412;20.970;2023-03-23T06:12:59;5.22;;;2.47;;
36061;SDS011;22123;52.412;20.970;2023-03-23T06:15:25;5.90;;;2.13;;
36061;SDS011;22123;52.412;20.970;2023-03-23T06:17:51;3.53;;;2.40;;
36061;SDS011;22123;52.412;20.970;2023-03-23T06:20:17;9.10;;;3.53;;
36061;SDS011;22123;52.412;20.970;2023-03-23T06:22:43;4.38;;;2.85;;
36061;SDS011;22123;52.412;20.970;2023-03-23T06:25:09;8.90;;;2.97;;
36061;SDS011;22123;52.412;20.970;2023-03-23T06:27:35;3.03;;;2.25;;
36061;SDS011;22123;52.412;20.970;2023-03-23T06:30:02;6.15;;;3.13;;
36061;SDS011;22123;52.412;20.970;2023-03-23T06:32:29;4.32;;;2.33;;
36061;SDS011;22123;52.412;20.970;2023-03-23T06:34:57;11.77;;;3.88;;
36061;SDS011;22123;52.412;20.970;2023-03-23T06:37:23;7.25;;;2.70;;
36061;SDS011;22123;52.412;20.970;2023-03-23T06:39:49;6.20;;;2.13;;
36061;SDS011;22123;52.412;20.970;2023-03-23T06:42:15;7.70;;;3.25;;
36061;SDS011;22123;52.412;20.970;2023-03-23T06:44:41;5.47;;;3.45;;
36061;SDS011;22123;52.412;20.970;2023-03-23T06:47:07;7.47;;;2.30;;
36061;SDS011;22123;52.412;20.970;2023-03-23T06:49:33;7.00;;;3.05;;
36061;SDS011;22123;52.412;20.970;2023-03-23T06:51:59;7.75;;;2.30;;
36061;SDS011;22123;52.412;20.970;2023-03-23T06:54:25;4.40;;;2.05;;
36061;SDS011;22123;52.412;20.970;2023-03-23T06:56:51;4.30;;;1.67;;
36061;SDS011;22123;52.412;20.970;2023-03-23T06:59:17;5.63;;;2.00;;
36061;SDS011;22123;52.412;20.970;2023-03-23T07:01:43;4.13;;;2.47;;
36061;SDS011;22123;52.412;20.970;2023-03-23T07:04:09;6.60;;;2.78;;
36061;SDS011;22123;52.412;20.970;2023-03-23T07:06:34;3.28;;;1.95;;
36061;SDS011;22123;52.412;20.970;2023-03-23T07:09:00;5.30;;;2.92;;
36061;SDS011;22123;52.412;20.970;2023-03-23T07:11:26;7.10;;;2.30;;
36061;SDS011;22123;52.412;20.970;2023-03-23T07:13:52;4.78;;;2.53;;
36061;SDS011;22123;52.412;20.970;2023-03-23T07:16:18;3.83;;;2.03;;
36061;SDS011;22123;52.412;20.970;2023-03-23T07:18:44;2.17;;;1.50;;
36061;SDS011;22123;52.412;20.970;2023-03-23T07:21:10;2.00;;;1.50;;
36061;SDS011;22123;52.412;20.970;2023-03-23T07:23:36;5.75;;;2.38;;
36061;SDS011;22123;52.412;20.970;2023-03-23T07:26:02;2.75;;;1.92;;
36061;SDS011;22123;52.412;20.970;2023-03-23T07:28:28;3.92;;;2.05;;
36061;SDS011;22123;52.412;20.970;2023-03-23T07:30:55;7.18;;;1.98;;
36061;SDS011;22123;52.412;20.970;2023-03-23T07:33:21;2.95;;;1.95;;
36061;SDS011;22123;52.412;20.970;2023-03-23T07:35:47;6.07;;;1.90;;
36061;SDS011;22123;52.412;20.970;2023-03-23T07:38:13;4.47;;;2.03;;
36061;SDS011;22123;52.412;20.970;2023-03-23T07:40:39;5.95;;;1.88;;
36061;SDS011;22123;52.412;20.970;2023-03-23T07:43:05;3.10;;;1.23;;
36061;SDS011;22123;52.412;20.970;2023-03-23T07:45:31;2.05;;;1.15;;
36061;SDS011;22123;52.412;20.970;2023-03-23T07:47:57;3.10;;;1.80;;
36061;SDS011;22123;52.412;20.970;2023-03-23T07:50:24;3.85;;;2.53;;
36061;SDS011;22123;52.412;20.970;2023-03-23T07:52:50;3.25;;;1.55;;
36061;SDS011;22123;52.412;20.970;2023-03-23T07:55:19;6.43;;;2.15;;
36061;SDS011;22123;52.412;20.970;2023-03-23T07:57:46;2.25;;;1.33;;
36061;SDS011;22123;52.412;20.970;2023-03-23T08:00:13;5.72;;;2.35;;
36061;SDS011;22123;52.412;20.970;2023-03-23T08:05:09;1.35;;;1.02;;
36061;SDS011;22123;52.412;20.970;2023-03-23T08:07:35;4.97;;;1.65;;
36061;SDS011;22123;52.412;20.970;2023-03-23T08:10:01;4.00;;;1.67;;
36061;SDS011;22123;52.412;20.970;2023-03-23T08:12:28;5.00;;;1.98;;
36061;SDS011;22123;52.412;20.970;2023-03-23T08:14:53;5.30;;;1.52;;
36061;SDS011;22123;52.412;20.970;2023-03-23T08:17:20;3.28;;;1.10;;
36061;SDS011;22123;52.412;20.970;2023-03-23T08:19:46;2.95;;;1.58;;
36061;SDS011;22123;52.412;20.970;2023-03-23T08:22:12;1.98;;;1.15;;
36061;SDS011;22123;52.412;20.970;2023-03-23T08:24:37;4.60;;;1.20;;
36061;SDS011;22123;52.412;20.970;2023-03-23T08:27:03;1.83;;;1.42;;
36061;SDS011;22123;52.412;20.970;2023-03-23T08:29:29;2.25;;;1.25;;
36061;SDS011;22123;52.412;20.970;2023-03-23T08:31:56;0.80;;;0.80;;
36061;SDS011;22123;52.412;20.970;2023-03-23T08:34:23;4.95;;;1.35;;
36061;SDS011;22123;52.412;20.970;2023-03-23T08:36:49;3.58;;;1.13;;
36061;SDS011;22123;52.412;20.970;2023-03-23T08:39:15;2.97;;;1.75;;
36061;SDS011;22123;52.412;20.970;2023-03-23T08:41:41;1.25;;;1.00;;
36061;SDS011;22123;52.412;20.970;2023-03-23T08:44:07;2.03;;;1.15;;
36061;SDS011;22123;52.412;20.970;2023-03-23T08:46:32;2.92;;;1.20;;
36061;SDS011;22123;52.412;20.970;2023-03-23T08:48:58;2.63;;;1.33;;
36061;SDS011;22123;52.412;20.970;2023-03-23T08:51:24;3.55;;;1.13;;
36061;SDS011;22123;52.412;20.970;2023-03-23T08:53:50;2.10;;;0.98;;
36061;SDS011;22123;52.412;20.970;2023-03-23T08:56:16;2.28;;;1.50;;
36061;SDS011;22123;52.412;20.970;2023-03-23T08:58:42;1.77;;;1.20;;
36061;SDS011;22123;52.412;20.970;2023-03-23T09:01:08;1.95;;;1.05;;
36061;SDS011;22123;52.412;20.970;2023-03-23T09:03:35;2.42;;;0.77;;
36061;SDS011;22123;52.412;20.970;2023-03-23T09:06:01;2.25;;;2.05;;
36061;SDS011;22123;52.412;20.970;2023-03-23T09:08:29;3.65;;;1.08;;
36061;SDS011;22123;52.412;20.970;2023-03-23T09:10:58;5.35;;;1.42;;
36061;SDS011;22123;52.412;20.970;2023-03-23T09:13:24;2.88;;;1.20;;
36061;SDS011;22123;52.412;20.970;2023-03-23T09:15:51;1.60;;;1.13;;
36061;SDS011;22123;52.412;20.970;2023-03-23T09:18:17;2.00;;;1.10;;
36061;SDS011;22123;52.412;20.970;2023-03-23T09:20:43;1.38;;;0.60;;
36061;SDS011;22123;52.412;20.970;2023-03-23T09:23:10;1.35;;;0.85;;
36061;SDS011;22123;52.412;20.970;2023-03-23T09:25:36;5.97;;;1.40;;
36061;SDS011;22123;52.412;20.970;2023-03-23T09:28:02;2.95;;;1.25;;
36061;SDS011;22123;52.412;20.970;2023-03-23T09:30:29;1.42;;;0.98;;
36061;SDS011;22123;52.412;20.970;2023-03-23T09:32:57;2.67;;;1.67;;
36061;SDS011;22123;52.412;20.970;2023-03-23T09:35:25;2.40;;;0.80;;
36061;SDS011;22123;52.412;20.970;2023-03-23T09:37:51;1.42;;;1.08;;
36061;SDS011;22123;52.412;20.970;2023-03-23T09:40:19;4.07;;;1.08;;
36061;SDS011;22123;52.412;20.970;2023-03-23T09:48:01;3.83;;;1.88;;
36061;SDS011;22123;52.412;20.970;2023-03-23T09:50:48;0.88;;;0.80;;
36061;SDS011;22123;52.412;20.970;2023-03-23T09:53:26;1.10;;;0.90;;
36061;SDS011;22123;52.412;20.970;2023-03-23T09:55:58;2.15;;;0.77;;
36061;SDS011;22123;52.412;20.970;2023-03-23T09:58:31;2.10;;;1.30;;
36061;SDS011;22123;52.412;20.970;2023-03-23T10:01:20;2.28;;;1.33;;
36061;SDS011;22123;52.412;20.970;2023-03-23T10:03:49;3.58;;;1.20;;
36061;SDS011;22123;52.412;20.970;2023-03-23T10:06:23;1.50;;;1.40;;
36061;SDS011;22123;52.412;20.970;2023-03-23T10:08:51;2.63;;;1.17;;
36061;SDS011;22123;52.412;20.970;2023-03-23T10:16:21;6.40;;;1.45;;
36061;SDS011;22123;52.412;20.970;2023-03-23T10:18:57;1.42;;;0.70;;
36061;SDS011;22123;52.412;20.970;2023-03-23T10:21:29;1.33;;;0.85;;
36061;SDS011;22123;52.412;20.970;2023-03-23T10:24:04;1.52;;;1.08;;
36061;SDS011;22123;52.412;20.970;2023-03-23T10:29:29;3.78;;;1.27;;
36061;SDS011;22123;52.412;20.970;2023-03-23T10:32:14;4.18;;;1.10;;
36061;SDS011;22123;52.412;20.970;2023-03-23T10:39:55;1.63;;;0.82;;
36061;SDS011;22123;52.412;20.970;2023-03-23T10:44:59;1.60;;;0.88;;
36061;SDS011;22123;52.412;20.970;2023-03-23T10:47:35;2.00;;;0.70;;
36061;SDS011;22123;52.412;20.970;2023-03-23T10:50:04;1.17;;;0.50;;
36061;SDS011;22123;52.412;20.970;2023-03-23T10:52:35;0.70;;;0.50;;
36061;SDS011;22123;52.412;20.970;2023-03-23T10:55:11;0.98;;;0.80;;
36061;SDS011;22123;52.412;20.970;2023-03-23T10:57:40;0.90;;;0.80;;
36061;SDS011;22123;52.412;20.970;2023-03-23T11:02:40;0.82;;;0.60;;
36061;SDS011;22123;52.412;20.970;2023-03-23T11:05:20;1.55;;;1.00;;
36061;SDS011;22123;52.412;20.970;2023-03-23T11:07:52;4.47;;;0.65;;
36061;SDS011;22123;52.412;20.970;2023-03-23T11:10:27;1.40;;;0.65;;
36061;SDS011;22123;52.412;20.970;2023-03-23T11:15:28;2.67;;;0.70;;
36061;SDS011;22123;52.412;20.970;2023-03-23T11:18:00;0.68;;;0.63;;
36061;SDS011;22123;52.412;20.970;2023-03-23T11:20:34;0.95;;;0.60;;
36061;SDS011;22123;52.412;20.970;2023-03-23T11:23:09;0.52;;;0.38;;
36061;SDS011;22123;52.412;20.970;2023-03-23T11:26:19;1.45;;;0.40;;
36061;SDS011;22123;52.412;20.970;2023-03-23T11:28:47;0.55;;;0.38;;
36061;SDS011;22123;52.412;20.970;2023-03-23T11:31:33;5.63;;;0.70;;
36061;SDS011;22123;52.412;20.970;2023-03-23T11:34:02;0.90;;;0.45;;
36061;SDS011;22123;52.412;20.970;2023-03-23T11:36:33;2.63;;;0.85;;
36061;SDS011;22123;52.412;20.970;2023-03-23T11:39:02;0.60;;;0.30;;
36061;SDS011;22123;52.412;20.970;2023-03-23T11:41:48;1.75;;;0.55;;
36061;SDS011;22123;52.412;20.970;2023-03-23T11:44:14;3.67;;;0.70;;
36061;SDS011;22123;52.412;20.970;2023-03-23T11:46:42;0.43;;;0.40;;
36061;SDS011;22123;52.412;20.970;2023-03-23T11:49:28;1.25;;;0.70;;
36061;SDS011;22123;52.412;20.970;2023-03-23T11:52:15;1.92;;;0.73;;
36061;SDS011;22123;52.412;20.970;2023-03-23T11:54:50;1.40;;;0.50;;
36061;SDS011;22123;52.412;20.970;2023-03-23T11:57:22;1.15;;;0.77;;
36061;SDS011;22123;52.412;20.970;2023-03-23T11:59:48;1.00;;;0.90;;
36061;SDS011;22123;52.412;20.970;2023-03-23T12:02:28;2.65;;;1.00;;
36061;SDS011;22123;52.412;20.970;2023-03-23T12:04:58;2.85;;;0.50;;
36061;SDS011;22123;52.412;20.970;2023-03-23T12:07:48;1.70;;;0.57;;
36061;SDS011;22123;52.412;20.970;2023-03-23T12:10:21;0.63;;;0.52;;
36061;SDS011;22123;52.412;20.970;2023-03-23T12:18:29;0.82;;;0.80;;
36061;SDS011;22123;52.412;20.970;2023-03-23T12:26:25;1.05;;;0.80;;
36061;SDS011;22123;52.412;20.970;2023-03-23T12:29:06;1.20;;;0.85;;
36061;SDS011;22123;52.412;20.970;2023-03-23T12:34:34;2.10;;;0.75;;
36061;SDS011;22123;52.412;20.970;2023-03-23T12:48:03;0.65;;;0.35;;
36061;SDS011;22123;52.412;20.970;2023-03-23T12:50:33;2.03;;;0.50;;
36061;SDS011;22123;52.412;20.970;2023-03-23T12:53:09;1.70;;;0.70;;
36061;SDS011;22123;52.412;20.970;2023-03-23T12:58:23;0.85;;;0.57;;
36061;SDS011;22123;52.412;20.970;2023-03-23T13:06:22;0.77;;;0.45;;
36061;SDS011;22123;52.412;20.970;2023-03-23T13:09:09;1.85;;;0.50;;
36061;SDS011;22123;52.412;20.970;2023-03-23T13:11:38;0.73;;;0.70;;
36061;SDS011;22123;52.412;20.970;2023-03-23T13:28:04;0.50;;;0.30;;
36061;SDS011;22123;52.412;20.970;2023-03-23T13:30:30;0.93;;;0.40;;
36061;SDS011;22123;52.412;20.970;2023-03-23T13:33:06;0.57;;;0.47;;
36061;SDS011;22123;52.412;20.970;2023-03-23T13:35:37;1.67;;;0.60;;
36061;SDS011;22123;52.412;20.970;2023-03-23T13:38:44;1.85;;;0.65;;
36061;SDS011;22123;52.412;20.970;2023-03-23T13:40:58;0.43;;;0.30;;
36061;SDS011;22123;52.412;20.970;2023-03-23T13:43:33;0.20;;;0.13;;
36061;SDS011;22123;52.412;20.970;2023-03-23T13:48:51;1.27;;;0.52;;
36061;SDS011;22123;52.412;20.970;2023-03-23T13:54:13;1.15;;;0.40;;
36061;SDS011;22123;52.412;20.970;2023-03-23T13:56:58;2.80;;;2.05;;
36061;SDS011;22123;52.412;20.970;2023-03-23T14:02:21;0.73;;;0.40;;
36061;SDS011;22123;52.412;20.970;2023-03-23T14:04:55;0.30;;;0.30;;
36061;SDS011;22123;52.412;20.970;2023-03-23T14:07:21;0.30;;;0.25;;
36061;SDS011;22123;52.412;20.970;2023-03-23T14:09:47;2.75;;;1.15;;
36061;SDS011;22123;52.412;20.970;2023-03-23T14:12:26;0.80;;;0.63;;
36061;SDS011;22123;52.412;20.970;2023-03-23T14:14:58;2.28;;;0.60;;
36061;SDS011;22123;52.412;20.970;2023-03-23T14:17:31;0.65;;;0.20;;
36061;SDS011;22123;52.412;20.970;2023-03-23T14:20:06;2.13;;;1.45;;
36061;SDS011;22123;52.412;20.970;2023-03-23T14:22:45;0.28;;;0.22;;
36061;SDS011;22123;52.412;20.970;2023-03-23T14:25:14;1.58;;;0.80;;
36061;SDS011;22123;52.412;20.970;2023-03-23T14:27:42;0.75;;;0.47;;
36061;SDS011;22123;52.412;20.970;2023-03-23T14:30:14;0.55;;;0.32;;
36061;SDS011;22123;52.412;20.970;2023-03-23T14:32:45;0.95;;;0.60;;
36061;SDS011;22123;52.412;20.970;2023-03-23T14:35:34;1.75;;;0.50;;
36061;SDS011;22123;52.412;20.970;2023-03-23T14:37:58;0.50;;;0.50;;
36061;SDS011;22123;52.412;20.970;2023-03-23T14:40:28;0.47;;;0.32;;
36061;SDS011;22123;52.412;20.970;2023-03-23T14:42:55;2.33;;;0.63;;
36061;SDS011;22123;52.412;20.970;2023-03-23T14:45:23;2.13;;;0.63;;
36061;SDS011;22123;52.412;20.970;2023-03-23T14:47:54;1.08;;;0.75;;
36061;SDS011;22123;52.412;20.970;2023-03-23T14:50:27;1.55;;;1.08;;
36061;SDS011;22123;52.412;20.970;2023-03-23T14:53:38;0.93;;;0.52;;
36061;SDS011;22123;52.412;20.970;2023-03-23T14:56:30;0.30;;;0.30;;
36061;SDS011;22123;52.412;20.970;2023-03-23T14:59:00;1.17;;;0.57;;
36061;SDS011;22123;52.412;20.970;2023-03-23T15:01:29;0.73;;;0.60;;
36061;SDS011;22123;52.412;20.970;2023-03-23T15:04:07;1.73;;;0.70;;
36061;SDS011;22123;52.412;20.970;2023-03-23T15:06:36;1.52;;;0.70;;
36061;SDS011;22123;52.412;20.970;2023-03-23T15:09:09;3.20;;;0.52;;
36061;SDS011;22123;52.412;20.970;2023-03-23T15:11:39;1.92;;;0.77;;
36061;SDS011;22123;52.412;20.970;2023-03-23T15:14:16;1.73;;;0.93;;
36061;SDS011;22123;52.412;20.970;2023-03-23T15:16:45;0.95;;;0.50;;
36061;SDS011;22123;52.412;20.970;2023-03-23T15:19:20;0.95;;;0.73;;
36061;SDS011;22123;52.412;20.970;2023-03-23T15:24:33;3.20;;;0.63;;
36061;SDS011;22123;52.412;20.970;2023-03-23T15:27:11;0.93;;;0.57;;
36061;SDS011;22123;52.412;20.970;2023-03-23T15:32:44;0.57;;;0.50;;
36061;SDS011;22123;52.412;20.970;2023-03-23T15:35:12;1.95;;;0.88;;
36061;SDS011;22123;52.412;20.970;2023-03-23T15:37:43;1.08;;;0.77;;
36061;SDS011;22123;52.412;20.970;2023-03-23T15:40:27;1.58;;;0.82;;
36061;SDS011;22123;52.412;20.970;2023-03-23T15:46:01;0.75;;;0.55;;
36061;SDS011;22123;52.412;20.970;2023-03-23T15:48:28;1.90;;;0.60;;
36061;SDS011;22123;52.412;20.970;2023-03-23T15:50:55;1.77;;;1.15;;
36061;SDS011;22123;52.412;20.970;2023-03-23T15:55:54;2.97;;;1.08;;
36061;SDS011;22123;52.412;20.970;2023-03-23T15:58:20;2.05;;;0.43;;
36061;SDS011;22123;52.412;20.970;2023-03-23T16:00:46;1.33;;;0.80;;
36061;SDS011;22123;52.412;20.970;2023-03-23T16:03:17;0.85;;;0.57;;
36061;SDS011;22123;52.412;20.970;2023-03-23T16:05:47;1.10;;;0.60;;
36061;SDS011;22123;52.412;20.970;2023-03-23T16:08:14;0.85;;;0.60;;
36061;SDS011;22123;52.412;20.970;2023-03-23T16:10:40;2.10;;;1.45;;
36061;SDS011;22123;52.412;20.970;2023-03-23T16:13:06;1.52;;;0.95;;
36061;SDS011;22123;52.412;20.970;2023-03-23T16:15:32;2.70;;;0.63;;
36061;SDS011;22123;52.412;20.970;2023-03-23T16:17:58;0.70;;;0.57;;
36061;SDS011;22123;52.412;20.970;2023-03-23T16:20:24;1.70;;;0.85;;
36061;SDS011;22123;52.412;20.970;2023-03-23T16:22:50;2.83;;;1.10;;
36061;SDS011;22123;52.412;20.970;2023-03-23T16:25:17;4.03;;;0.95;;
36061;SDS011;22123;52.412;20.970;2023-03-23T16:27:43;2.80;;;1.73;;
36061;SDS011;22123;52.412;20.970;2023-03-23T16:30:17;4.13;;;1.60;;
36061;SDS011;22123;52.412;20.970;2023-03-23T16:32:48;3.72;;;1.25;;
36061;SDS011;22123;52.412;20.970;2023-03-23T16:35:14;1.80;;;1.52;;
36061;SDS011;22123;52.412;20.970;2023-03-23T16:37:46;1.90;;;1.23;;
36061;SDS011;22123;52.412;20.970;2023-03-23T16:40:15;7.45;;;1.70;;
36061;SDS011;22123;52.412;20.970;2023-03-23T16:42:42;2.03;;;1.00;;
36061;SDS011;22123;52.412;20.970;2023-03-23T16:45:09;3.03;;;1.50;;
36061;SDS011;22123;52.412;20.970;2023-03-23T16:47:35;1.55;;;1.00;;
36061;SDS011;22123;52.412;20.970;2023-03-23T16:50:02;3.90;;;0.75;;
36061;SDS011;22123;52.412;20.970;2023-03-23T16:52:29;1.65;;;1.05;;